Terminal Aerodrome Forecast
Issued by NWS Goodland, KS

Home | Current Version | Previous Version | Text Only | Print | Product List | Glossary On
Versions: 1 2 3 4 5 6 7 8 9 10 11 12 13 14 15 16 17 18 19 20 21
651
FTUS43 KGLD 220541
TAFGLD
TAF
KGLD 220541Z 2206/2306 07003KT 4SM BR SCT004 OVC025
      TEMPO 2208/2212 2SM BR BKN008
     FM221200 31005KT 2SM BR BKN010
      TEMPO 2212/2215 4SM BR BKN025
     FM221500 34005KT P6SM FEW025 SCT110
     FM230200 12006KT P6SM FEW035 FEW250=

USA.gov is the U.S. government's official web portal to all federal, state and local government web resources and services.